Time;durP1;ratioP1;P1;durP2;ratioP2;P2;SDS_P1;SDS_P2;PMS_P1;PMS_P2;Temp;Humidity;BMP_temperature;BMP_pressure;BME280_temperature;BME280_humidity;BME280_pressure;Samples;Min_cycle;Max_cycle;Signal;HPM_P1;HPM_P2
2023/09/25 00:01:33;;;;;;;;;;;12.00;55.40;;;7.44;100.00;96090.16;5028758;28;19909;-44
2023/09/25 00:04:00;;;;;;;;;;;12.00;55.50;;;7.38;100.00;96096.38;5022848;28;20037;-43
2023/09/25 00:06:27;;;;;;;;;;;11.90;55.50;;;7.32;100.00;96087.50;5029892;28;19908;-44
2023/09/25 00:08:53;;;;;;;;;;;11.90;55.60;;;7.26;100.00;96091.09;5024851;28;19916;-48
2023/09/25 00:11:18;;;;;;;;;;;11.80;55.60;;;7.17;100.00;96095.13;5026010;28;19916;-42
2023/09/25 00:13:44;;;;;;;;;;;11.70;55.70;;;7.11;100.00;96094.22;5027650;28;19908;-42
2023/09/25 00:16:14;;;;;;;;;;;11.70;55.80;;;7.06;100.00;96088.78;5025262;28;19909;-47
2023/09/25 00:18:40;;;;;;;;;;;11.70;55.90;;;7.03;100.00;96097.19;5028686;28;19908;-43
2023/09/25 00:21:06;;;;;;;;;;;11.60;56.00;;;6.99;100.00;96090.75;5020999;28;19924;-44
2023/09/25 00:23:32;;;;;;;;;;;11.60;56.10;;;6.99;100.00;96093.41;5029784;28;20263;-42
2023/09/25 00:26:08;;;;;;;;;;;11.60;56.40;;;6.98;100.00;96090.97;5028307;28;20435;-46
2023/09/25 00:28:34;;;;;;;;;;;11.50;56.20;;;6.97;100.00;96098.09;5018249;28;19921;-42
2023/09/25 00:31:00;;;;;;;;;;;11.50;56.30;;;6.92;100.00;96097.97;5030243;28;20022;-42
2023/09/25 00:33:26;;;;;;;;;;;11.50;56.40;;;6.88;100.00;96099.47;5023013;28;19917;-43
2023/09/25 00:35:53;;;;;;;;;;;11.40;56.40;;;6.87;100.00;96105.81;5025653;28;19951;-42
2023/09/25 00:38:20;;;;;;;;;;;11.40;56.40;;;6.87;100.00;96105.81;5027581;28;19935;-44
2023/09/25 00:40:46;;;;;;;;;;;11.40;56.60;;;6.82;100.00;96101.19;5029471;28;19916;-45
2023/09/25 00:43:13;;;;;;;;;;;11.40;56.60;;;6.77;100.00;96102.91;5030046;28;19908;-42
2023/09/25 00:45:41;;;;;;;;;;;11.30;56.60;;;6.73;100.00;96100.72;5023318;28;19919;-43
2023/09/25 00:48:26;;;;;;;;;;;11.30;56.70;;;6.75;100.00;96099.69;5027959;28;19951;-44
2023/09/25 00:50:57;;;;;;;;;;;11.20;56.70;;;6.76;100.00;96090.72;5022352;28;19971;-43
2023/09/25 00:53:29;;;;;;;;;;;11.20;56.80;;;6.72;100.00;96093.00;5030988;28;20375;-47
2023/09/25 00:55:55;;;;;;;;;;;11.30;57.00;;;6.64;100.00;96086.22;5019271;28;20371;-43
2023/09/25 00:58:23;;;;;;;;;;;11.20;56.90;;;6.56;100.00;96091.81;5022976;28;20449;-43
2023/09/25 01:00:49;;;;;;;;;;;11.10;56.90;;;6.50;100.00;96098.00;5028726;28;19916;-43
2023/09/25 01:03:15;;;;;;;;;;;11.10;56.90;;;6.45;100.00;96095.22;5024174;28;19935;-43
2023/09/25 01:05:41;;;;;;;;;;;11.00;57.00;;;6.41;100.00;96099.38;5031260;28;19909;-43
2023/09/25 01:08:08;;;;;;;;;;;11.10;57.10;;;6.33;100.00;96100.50;5025467;28;19912;-45
2023/09/25 01:10:33;;;;;;;;;;;11.00;57.20;;;6.44;100.00;96096.28;5012854;28;19932;-46
2023/09/25 01:13:01;;;;;;;;;;;11.00;57.30;;;6.44;100.00;96098.91;5013390;28;20347;-46
2023/09/25 01:15:27;;;;;;;;;;;11.00;57.40;;;6.41;100.00;96094.88;5020561;28;19909;-46
2023/09/25 01:17:53;;;;;;;;;;;11.00;57.30;;;6.34;100.00;96099.47;5031357;28;20004;-48
2023/09/25 01:20:19;;;;;;;;;;;10.90;57.40;;;6.30;100.00;96095.66;5032180;28;20015;-43
2023/09/25 01:22:48;;;;;;;;;;;10.90;57.40;;;6.28;100.00;96100.38;5033275;28;19909;-45
2023/09/25 01:25:16;;;;;;;;;;;10.90;57.50;;;6.23;100.00;96090.44;5032961;28;19915;-42
2023/09/25 01:27:44;;;;;;;;;;;10.80;57.50;;;6.18;100.00;96092.97;5028328;23;19921;-48
2023/09/25 01:30:13;;;;;;;;;;;10.80;57.60;;;6.17;100.00;96078.13;5002845;28;19943;-48
2023/09/25 01:32:44;;;;;;;;;;;10.80;57.70;;;6.21;100.00;96091.72;5002497;28;19913;-49
2023/09/25 01:35:16;;;;;;;;;;;10.80;57.80;;;6.21;100.00;96081.13;5012857;28;19915;-52
2023/09/25 01:37:42;;;;;;;;;;;10.80;57.90;;;6.17;100.00;96080.78;4990285;28;19916;-50
2023/09/25 01:40:16;;;;;;;;;;;10.70;57.90;;;6.15;100.00;96072.25;5005317;28;19924;-52
2023/09/25 01:42:44;;;;;;;;;;;10.70;57.90;;;6.12;100.00;96071.91;5012762;28;19909;-51
2023/09/25 01:45:11;;;;;;;;;;;10.70;57.90;;;6.06;100.00;96070.94;5004813;28;19920;-47
2023/09/25 01:47:39;;;;;;;;;;;10.70;58.00;;;6.07;100.00;96066.47;5012303;28;20021;-46
2023/09/25 01:50:08;;;;;;;;;;;10.60;58.10;;;6.09;100.00;96064.41;4994286;28;19916;-49
2023/09/25 01:52:35;;;;;;;;;;;10.60;58.20;;;6.10;100.00;96066.00;5009763;28;19909;-48
2023/09/25 01:55:00;;;;;;;;;;;10.60;58.20;;;6.12;100.00;96061.31;5012571;28;19996;-49
2023/09/25 01:57:26;;;;;;;;;;;10.60;58.20;;;6.15;100.00;96058.22;5008411;28;19999;-46
2023/09/25 01:59:52;;;;;;;;;;;10.60;58.30;;;6.14;100.00;96056.59;5012746;28;20385;-45
2023/09/25 02:02:19;;;;;;;;;;;10.60;58.40;;;6.07;100.00;96058.53;5004519;28;19909;-45
2023/09/25 02:04:45;;;;;;;;;;;10.60;58.40;;;6.09;100.00;96056.47;5009990;28;20295;-47
2023/09/25 02:07:11;;;;;;;;;;;10.60;58.40;;;6.06;100.00;96067.50;5011663;28;19909;-47
2023/09/25 02:09:36;;;;;;;;;;;10.60;58.50;;;6.01;100.00;96055.72;5002568;28;19927;-46
2023/09/25 02:12:02;;;;;;;;;;;10.60;58.40;;;5.96;100.00;96062.75;5012321;28;19909;-46
2023/09/25 02:14:28;;;;;;;;;;;10.50;58.40;;;5.91;100.00;96067.84;5010285;28;20003;-46
2023/09/25 02:16:54;;;;;;;;;;;10.50;58.40;;;5.87;100.00;96067.50;5011432;28;19995;-49
2023/09/25 02:19:20;;;;;;;;;;;10.50;58.50;;;5.92;100.00;96066.81;5012377;28;20448;-46
2023/09/25 02:21:45;;;;;;;;;;;10.50;58.50;;;5.97;100.00;96053.78;5010186;28;19909;-45
2023/09/25 02:24:11;;;;;;;;;;;10.50;58.60;;;5.98;100.00;96050.09;5011868;28;19913;-49
2023/09/25 02:26:37;;;;;;;;;;;10.50;58.60;;;6.03;100.00;96040.47;5002961;28;19920;-51
2023/09/25 02:29:03;;;;;;;;;;;10.50;58.80;;;6.08;100.00;96046.91;4988700;28;20020;-48
2023/09/25 02:31:28;;;;;;;;;;;10.50;58.90;;;6.08;100.00;96053.03;5011568;28;20255;-50
2023/09/25 02:33:54;;;;;;;;;;;10.50;58.90;;;6.02;100.00;96053.91;5003794;28;20373;-47
2023/09/25 02:36:20;;;;;;;;;;;10.50;58.80;;;5.97;100.00;96053.78;5011868;28;20290;-45
2023/09/25 02:38:46;;;;;;;;;;;10.50;58.90;;;5.90;100.00;96053.84;5009386;28;19909;-47
2023/09/25 02:41:12;;;;;;;;;;;10.50;58.80;;;5.84;100.00;96041.50;5008404;28;19913;-48
2023/09/25 02:43:38;;;;;;;;;;;10.40;58.80;;;5.78;100.00;96055.63;5009055;28;20367;-51
2023/09/25 02:46:05;;;;;;;;;;;10.40;58.80;;;5.74;100.00;96049.97;5008345;28;19952;-45
2023/09/25 02:48:30;;;;;;;;;;;10.40;58.80;;;5.69;100.00;96055.09;5010952;28;20359;-47
2023/09/25 02:50:56;;;;;;;;;;;10.30;58.80;;;5.66;100.00;96052.09;5002127;28;19909;-44
2023/09/25 02:53:22;;;;;;;;;;;10.30;58.80;;;5.62;100.00;96061.50;5011739;28;20348;-48
2023/09/25 02:55:52;;;;;;;;;;;10.30;58.90;;;5.59;100.00;96061.94;5008498;28;20388;-45
2023/09/25 02:58:17;;;;;;;;;;;10.20;58.80;;;5.54;100.00;96070.53;5006114;28;19959;-45
2023/09/25 03:00:45;;;;;;;;;;;10.20;58.80;;;5.49;100.00;96065.13;5011250;28;20294;-48
2023/09/25 03:03:11;;;;;;;;;;;10.20;58.90;;;5.44;100.00;96057.81;5003907;28;20282;-46
2023/09/25 03:05:37;;;;;;;;;;;10.10;58.90;;;5.45;100.00;96053.34;5003074;28;19913;-48
2023/09/25 03:08:04;;;;;;;;;;;10.10;59.00;;;5.43;100.00;96055.41;5006243;28;20330;-47
2023/09/25 03:10:30;;;;;;;;;;;10.10;59.00;;;5.36;100.00;96058.13;5002700;28;19916;-47
2023/09/25 03:12:55;;;;;;;;;;;10.00;59.00;;;5.30;100.00;96056.38;5011542;28;20173;-45
2023/09/25 03:15:21;;;;;;;;;;;10.00;59.00;;;5.21;100.00;96055.03;4984479;28;19915;-46
2023/09/25 03:17:47;;;;;;;;;;;9.90;59.10;;;5.15;100.00;96055.91;5010320;28;20396;-44
2023/09/25 03:20:15;;;;;;;;;;;9.90;59.10;;;5.14;100.00;96060.41;5008744;28;19913;-46
2023/09/25 03:22:42;;;;;;;;;;;9.80;59.10;;;5.14;100.00;96056.91;5011114;28;19909;-47
2023/09/25 03:25:09;;;;;;;;;;;9.80;59.20;;;5.16;100.00;96066.25;5010772;28;20285;-47
2023/09/25 03:27:34;;;;;;;;;;;9.80;59.20;;;5.19;100.00;96057.88;5004085;28;20435;-50
2023/09/25 03:30:00;;;;;;;;;;;9.80;59.40;;;5.19;100.00;96063.16;5005287;28;19912;-45
2023/09/25 03:32:26;;;;;;;;;;;9.80;59.40;;;5.14;100.00;96063.03;5006091;28;19917;-48
2023/09/25 03:34:52;;;;;;;;;;;9.70;59.30;;;5.09;100.00;96062.88;5010772;28;19917;-47
2023/09/25 03:37:17;;;;;;;;;;;9.70;59.40;;;5.08;100.00;96067.34;5010239;28;19958;-49
2023/09/25 03:39:43;;;;;;;;;;;9.70;59.50;;;5.08;100.00;96070.00;4995505;28;19913;-46
2023/09/25 03:42:09;;;;;;;;;;;9.70;59.60;;;5.10;100.00;96064.47;5011227;28;20406;-50
2023/09/25 03:44:34;;;;;;;;;;;9.70;59.60;;;5.08;100.00;96067.34;5002580;28;19917;-52
2023/09/25 03:47:00;;;;;;;;;;;9.60;59.60;;;5.08;100.00;96070.00;5010288;28;19912;-50
2023/09/25 03:49:26;;;;;;;;;;;9.70;59.80;;;5.06;100.00;96060.66;4993402;28;19913;-46
2023/09/25 03:51:52;;;;;;;;;;;9.60;59.70;;;5.14;100.00;96070.97;5007276;28;20303;-49
2023/09/25 03:54:17;;;;;;;;;;;9.70;59.90;;;5.17;100.00;96070.53;5011067;28;19938;-48
2023/09/25 03:56:43;;;;;;;;;;;9.60;59.90;;;5.14;100.00;96076.25;5002066;28;19936;-51
2023/09/25 03:59:11;;;;;;;;;;;9.70;59.90;;;5.09;100.00;96073.44;5010720;28;20263;-48
2023/09/25 04:01:37;;;;;;;;;;;9.70;59.90;;;5.03;100.00;96077.75;5008498;28;19958;-49
2023/09/25 04:04:03;;;;;;;;;;;9.60;59.80;;;4.97;100.00;96083.91;4986280;28;20318;-49
2023/09/25 04:06:29;;;;;;;;;;;9.60;59.80;;;4.95;100.00;96082.50;5011078;28;19971;-45
2023/09/25 04:08:54;;;;;;;;;;;9.60;59.80;;;4.98;100.00;96088.16;4989485;28;19913;-49
2023/09/25 04:11:20;;;;;;;;;;;9.60;59.90;;;5.09;100.00;96086.63;4993268;28;20000;-47
2023/09/25 04:13:47;;;;;;;;;;;9.60;60.80;;;5.09;100.00;96084.00;5007006;28;19913;-49
2023/09/25 04:16:14;;;;;;;;;;;9.60;60.10;;;5.06;100.00;96085.22;5006860;28;20369;-50
2023/09/25 04:18:42;;;;;;;;;;;9.60;60.10;;;5.02;100.00;96080.63;5009992;28;19962;-52
2023/09/25 04:21:11;;;;;;;;;;;9.60;60.10;;;4.94;100.00;96091.44;5001648;28;20430;-49
2023/09/25 04:23:43;;;;;;;;;;;9.50;60.00;;;4.90;100.00;96098.19;5010343;28;19999;-46
2023/09/25 04:26:11;;;;;;;;;;;9.50;60.00;;;4.85;100.00;96090.91;5008760;28;19945;-48
2023/09/25 04:28:38;;;;;;;;;;;9.50;60.10;;;4.78;100.00;96087.50;5011670;28;19921;-49
2023/09/25 04:31:05;;;;;;;;;;;9.50;60.10;;;4.74;100.00;96092.41;5008472;28;19913;-46
2023/09/25 04:33:32;;;;;;;;;;;9.50;60.10;;;4.73;100.00;96089.97;5008367;28;19944;-47
2023/09/25 04:36:01;;;;;;;;;;;9.40;60.10;;;4.72;100.00;96091.81;5013949;28;19943;-45
2023/09/25 04:38:32;;;;;;;;;;;9.40;60.30;;;4.79;100.00;96086.47;5004929;28;19909;-47
2023/09/25 04:40:58;;;;;;;;;;;9.40;60.40;;;4.80;100.00;96080.19;5006514;28;19909;-48
2023/09/25 04:43:24;;;;;;;;;;;9.40;60.50;;;4.84;100.00;96076.09;5013672;28;19958;-50
2023/09/25 04:45:51;;;;;;;;;;;9.40;60.50;;;4.88;100.00;96078.06;5004930;28;19917;-46
2023/09/25 04:48:19;;;;;;;;;;;9.40;60.70;;;4.93;100.00;96074.81;5013176;28;19917;-46
2023/09/25 04:50:45;;;;;;;;;;;9.40;60.70;;;4.96;100.00;96076.22;5011236;28;20389;-45
2023/09/25 04:53:10;;;;;;;;;;;9.50;60.90;;;5.01;100.00;96076.34;5013703;28;19941;-48
2023/09/25 04:55:39;;;;;;;;;;;9.50;60.90;;;4.99;100.00;96078.41;5013655;28;19913;-48
2023/09/25 04:58:05;;;;;;;;;;;9.50;60.90;;;5.05;100.00;96080.19;5007295;28;19917;-45
2023/09/25 05:00:32;;;;;;;;;;;9.50;60.90;;;5.08;100.00;96080.56;5013818;28;19928;-45
2023/09/25 05:02:59;;;;;;;;;;;9.60;61.00;;;5.12;100.00;96088.84;5005639;28;19912;-50
2023/09/25 05:05:26;;;;;;;;;;;9.60;61.00;;;5.14;100.00;96091.25;5013799;28;19909;-45
2023/09/25 05:07:56;;;;;;;;;;;9.60;61.00;;;5.12;100.00;96093.31;5010278;28;19939;-47
2023/09/25 05:10:25;;;;;;;;;;;9.60;61.00;;;5.12;100.00;96096.78;4998160;28;20000;-46
2023/09/25 05:12:53;;;;;;;;;;;9.60;61.10;;;5.11;100.00;96095.16;5000903;28;19913;-45
2023/09/25 05:15:20;;;;;;;;;;;9.70;61.10;;;5.09;100.00;96105.13;4999006;28;19909;-48
2023/09/25 05:17:47;;;;;;;;;;;9.70;61.00;;;5.05;100.00;96099.47;4998838;28;19967;-45
2023/09/25 05:20:18;;;;;;;;;;;9.60;61.00;;;4.99;100.00;96092.41;4997137;28;19967;-49
2023/09/25 05:22:53;;;;;;;;;;;9.70;61.00;;;4.97;100.00;96106.84;4999596;28;20310;-47
2023/09/25 05:25:21;;;;;;;;;;;9.70;61.00;;;4.95;100.00;96098.34;4997914;28;20290;-46
2023/09/25 05:27:54;;;;;;;;;;;9.70;61.10;;;4.91;100.00;96099.78;5003391;28;19931;-46
2023/09/25 05:30:20;;;;;;;;;;;9.70;61.10;;;4.88;100.00;96098.38;5007693;28;19974;-48
2023/09/25 05:32:50;;;;;;;;;;;9.70;61.00;;;4.88;100.00;96101.03;5005715;28;19982;-47
2023/09/25 05:35:17;;;;;;;;;;;9.70;60.90;;;4.86;100.00;96100.47;4996857;28;20016;-46
2023/09/25 05:37:45;;;;;;;;;;;9.70;60.90;;;4.86;100.00;96100.47;4996738;28;19913;-46
2023/09/25 05:40:13;;;;;;;;;;;9.70;60.90;;;4.84;100.00;96100.66;4995833;28;19916;-47
2023/09/25 05:42:42;;;;;;;;;;;9.60;60.80;;;4.84;100.00;96105.13;5000238;28;20290;-49
2023/09/25 05:45:10;;;;;;;;;;;9.60;60.90;;;4.89;100.00;96105.31;4998798;28;19935;-45
2023/09/25 05:47:35;;;;;;;;;;;9.70;61.00;;;4.94;100.00;96102.00;5012294;28;19913;-48
2023/09/25 05:50:02;;;;;;;;;;;9.70;61.00;;;4.93;100.00;96103.84;5009326;28;19917;-46
2023/09/25 05:52:29;;;;;;;;;;;9.70;61.00;;;4.95;100.00;96101.81;5012940;28;19948;-49
2023/09/25 05:54:55;;;;;;;;;;;9.70;60.90;;;4.97;100.00;96101.56;5012639;28;19971;-49
2023/09/25 05:57:21;;;;;;;;;;;9.70;61.00;;;5.05;100.00;96101.31;4997771;28;19920;-46
2023/09/25 05:59:46;;;;;;;;;;;9.70;61.00;;;5.10;100.00;96101.44;5000313;28;20378;-45
2023/09/25 06:02:12;;;;;;;;;;;9.80;61.20;;;5.16;100.00;96102.41;5000978;28;20379;-45
2023/09/25 06:04:38;;;;;;;;;;;9.80;61.20;;;5.16;100.00;96103.22;5010211;28;20324;-47
2023/09/25 06:07:06;;;;;;;;;;;9.80;61.20;;;5.16;100.00;96105.88;5012130;28;19919;-45
2023/09/25 06:09:33;;;;;;;;;;;9.90;61.20;;;5.16;100.00;96105.88;4987101;28;19913;-49
2023/09/25 06:11:59;;;;;;;;;;;9.90;61.20;;;5.18;100.00;96110.94;5012251;28;19909;-45
2023/09/25 06:14:27;;;;;;;;;;;9.90;61.20;;;5.20;100.00;96101.78;5005747;28;19916;-46
2023/09/25 06:16:55;;;;;;;;;;;9.90;61.10;;;5.25;100.00;96114.31;5011959;28;20282;-50
2023/09/25 06:19:21;;;;;;;;;;;10.00;61.20;;;5.29;100.00;96111.00;5012356;28;19955;-46
2023/09/25 06:21:47;;;;;;;;;;;10.00;61.30;;;5.34;100.00;96105.91;5003275;28;19912;-48
2023/09/25 06:24:14;;;;;;;;;;;10.00;61.30;;;5.40;100.00;96116.63;5011924;28;19919;-46
2023/09/25 06:26:41;;;;;;;;;;;10.10;61.40;;;5.52;100.00;96120.16;5004191;28;19931;-46
2023/09/25 06:29:09;;;;;;;;;;;10.20;61.60;;;5.60;100.00;96122.50;5009099;28;19927;-46
2023/09/25 06:31:36;;;;;;;;;;;10.30;61.60;;;5.63;100.00;96110.69;5008142;28;19989;-48
2023/09/25 06:34:04;;;;;;;;;;;10.30;61.50;;;5.64;100.00;96114.94;5008125;28;19916;-49
2023/09/25 06:36:31;;;;;;;;;;;10.40;61.50;;;5.66;100.00;96111.06;5011606;28;19954;-45
2023/09/25 06:38:57;;;;;;;;;;;10.50;61.80;;;5.70;100.00;96119.34;5002821;28;19909;-48
2023/09/25 06:41:23;;;;;;;;;;;10.50;61.30;;;5.77;100.00;96112.16;5007795;28;19916;-51
2023/09/25 06:43:49;;;;;;;;;;;10.60;61.30;;;5.89;100.00;96110.41;5009928;28;20299;-46
2023/09/25 06:46:15;;;;;;;;;;;10.70;61.40;;;6.11;100.00;96117.88;5006293;28;20441;-46
2023/09/25 06:48:41;;;;;;;;;;;10.90;61.50;;;6.36;100.00;96115.94;5006134;28;19924;-46
2023/09/25 06:51:07;;;;;;;;;;;11.20;61.60;;;6.69;100.00;96115.44;5006740;28;19909;-46
2023/09/25 06:53:33;;;;;;;;;;;11.60;61.60;;;7.08;100.00;96125.63;5011451;28;19917;-46
2023/09/25 06:55:59;;;;;;;;;;;12.00;61.60;;;7.52;100.00;96120.81;5008225;28;19944;-46
2023/09/25 06:58:25;;;;;;;;;;;12.50;61.60;;;7.86;100.00;96125.25;5003777;28;19908;-46
2023/09/25 07:00:51;;;;;;;;;;;12.90;61.40;;;8.14;100.00;96130.84;5011242;28;19959;-47
2023/09/25 07:03:17;;;;;;;;;;;13.40;61.10;;;8.48;100.00;96126.50;5005596;28;19915;-47
2023/09/25 07:05:44;;;;;;;;;;;13.90;60.90;;;8.86;100.00;96135.66;5006008;28;19917;-49
2023/09/25 07:08:11;;;;;;;;;;;14.30;60.60;;;9.32;100.00;96144.38;5004800;28;19968;-46
2023/09/25 07:10:37;;;;;;;;;;;14.80;60.40;;;9.70;100.00;96136.41;5003569;28;19909;-48
2023/09/25 07:13:03;;;;;;;;;;;15.30;60.20;;;10.04;100.00;96135.53;5011709;28;19909;-49
2023/09/25 07:15:30;;;;;;;;;;;15.90;60.00;;;10.30;100.00;96131.34;5005212;28;19909;-52
2023/09/25 07:17:56;;;;;;;;;;;16.40;59.70;;;10.60;100.00;96134.34;5001586;28;19936;-45
2023/09/25 07:20:22;;;;;;;;;;;16.80;59.40;;;10.99;100.00;96128.84;5006266;28;19909;-49
2023/09/25 07:22:48;;;;;;;;;;;17.30;59.10;;;11.34;100.00;96136.34;5011298;28;19959;-49
2023/09/25 07:25:14;;;;;;;;;;;17.80;58.80;;;11.75;100.00;96133.09;5010968;28;19951;-49
2023/09/25 07:27:40;;;;;;;;;;;18.20;58.50;;;12.11;100.00;96128.78;5001920;28;19967;-46
2023/09/25 07:30:08;;;;;;;;;;;18.60;58.20;;;12.41;97.29;96127.28;5011110;28;19909;-46
2023/09/25 07:32:34;;;;;;;;;;;19.00;58.00;;;12.69;89.14;96118.84;5002264;28;20280;-47
2023/09/25 07:35:04;;;;;;;;;;;19.40;57.80;;;13.13;91.21;96117.53;5010911;28;19917;-49
2023/09/25 07:37:30;;;;;;;;;;;19.80;57.70;;;13.53;86.20;96122.06;5010547;28;19915;-55
2023/09/25 07:39:56;;;;;;;;;;;20.20;57.30;;;13.92;83.37;96118.00;5001340;28;19909;-47
2023/09/25 07:42:21;;;;;;;;;;;20.50;56.80;;;14.20;77.54;96120.06;5011200;28;20378;-52
2023/09/25 07:44:48;;;;;;;;;;;20.90;56.40;;;14.56;78.56;96126.06;5002640;28;19959;-49
2023/09/25 07:47:14;;;;;;;;;;;21.20;56.00;;;14.85;75.04;96132.59;5010468;28;20004;-47
2023/09/25 07:49:41;;;;;;;;;;;21.60;55.70;;;15.17;72.69;96122.19;5008876;28;20001;-52
2023/09/25 07:52:18;;;;;;;;;;;21.90;55.30;;;15.41;67.88;96124.13;5004475;28;19917;-46
2023/09/25 07:54:46;;;;;;;;;;;22.30;54.80;;;15.61;67.94;96133.91;5010544;28;20382;-47
2023/09/25 07:57:19;;;;;;;;;;;22.50;54.20;;;15.65;66.94;96135.72;5008349;28;19924;-46
2023/09/25 07:59:46;;;;;;;;;;;22.80;53.70;;;15.93;64.43;96131.47;5004404;28;19915;-47
2023/09/25 08:02:20;;;;;;;;;;;23.00;53.10;;;16.19;67.10;96126.59;5006600;28;19920;-49
2023/09/25 08:04:48;;;;;;;;;;;23.20;52.70;;;16.38;63.75;96132.00;5013717;28;19912;-51
2023/09/25 08:07:14;;;;;;;;;;;23.50;52.40;;;16.53;61.80;96124.84;5014333;28;19920;-47
2023/09/25 08:09:40;;;;;;;;;;;23.60;51.80;;;16.83;62.73;96124.47;5004760;28;20428;-51
2023/09/25 08:12:06;;;;;;;;;;;23.80;51.40;;;17.18;59.94;96129.63;5014922;28;19917;-49
2023/09/25 08:14:35;;;;;;;;;;;23.90;51.10;;;17.61;60.15;96130.22;5011737;28;19913;-47
2023/09/25 08:17:02;;;;;;;;;;;24.20;50.90;;;18.00;58.30;96126.34;5014375;28;19909;-51
2023/09/25 08:19:28;;;;;;;;;;;24.40;50.60;;;18.32;56.30;96135.44;5014636;28;20003;-48
2023/09/25 08:21:53;;;;;;;;;;;24.60;50.20;;;18.42;54.86;96127.91;5007418;28;20390;-50
2023/09/25 08:24:20;;;;;;;;;;;24.80;49.80;;;18.43;54.65;96123.34;5014850;28;19913;-55
2023/09/25 08:26:46;;;;;;;;;;;25.00;49.50;;;18.59;54.84;96135.41;5007605;28;19910;-55
2023/09/25 08:29:18;;;;;;;;;;;25.20;49.10;;;18.69;53.61;96137.09;5014643;28;20019;-54
2023/09/25 08:31:46;;;;;;;;;;;25.40;48.80;;;18.91;53.56;96131.78;5013380;28;19964;-55
2023/09/25 08:34:12;;;;;;;;;;;25.50;48.30;;;19.22;52.51;96128.38;5008983;28;20282;-54
2023/09/25 08:36:38;;;;;;;;;;;25.70;48.30;;;19.55;52.01;96137.00;5014593;28;19909;-50
2023/09/25 08:39:04;;;;;;;;;;;25.90;48.20;;;19.92;50.42;96145.03;5005934;28;20256;-51
2023/09/25 08:41:31;;;;;;;;;;;26.20;47.90;;;19.87;49.70;96148.69;4999014;28;19909;-53
2023/09/25 08:43:58;;;;;;;;;;;26.50;47.50;;;19.86;49.75;96145.16;4984075;28;20437;-49
2023/09/25 08:46:25;;;;;;;;;;;26.70;47.70;;;19.81;48.42;96148.03;5010558;28;20302;-55
2023/09/25 08:48:56;;;;;;;;;;;26.80;46.70;;;20.02;48.16;96148.25;5014062;28;19913;-52
2023/09/25 08:51:29;;;;;;;;;;;27.10;46.50;;;20.10;48.34;96144.81;5006833;28;19909;-53
2023/09/25 08:53:55;;;;;;;;;;;27.20;46.00;;;20.17;48.74;96147.06;5013809;28;19909;-54
2023/09/25 08:56:22;;;;;;;;;;;27.30;45.60;;;20.38;49.62;96149.22;5009337;28;19909;-52
2023/09/25 08:58:51;;;;;;;;;;;27.40;45.30;;;20.38;47.69;96143.81;4991603;28;19908;-51
2023/09/25 09:01:18;;;;;;;;;;;27.50;44.80;;;20.41;47.49;96132.38;4996775;28;19913;-52
2023/09/25 09:03:44;;;;;;;;;;;27.60;44.70;;;20.41;47.38;96130.47;5006470;28;19913;-53
2023/09/25 09:06:10;;;;;;;;;;;27.70;44.60;;;20.59;47.55;96133.22;5012225;28;19916;-53
2023/09/25 09:08:36;;;;;;;;;;;27.80;44.40;;;20.91;46.84;96130.09;4987792;28;19955;-51
2023/09/25 09:11:13;;;;;;;;;;;27.90;44.20;;;21.27;46.47;96121.66;5011673;28;20295;-52
2023/09/25 09:13:47;;;;;;;;;;;28.20;44.10;;;21.64;45.64;96126.75;4995691;28;19913;-51
2023/09/25 09:16:19;;;;;;;;;;;28.40;43.80;;;22.00;44.79;96125.50;5028662;23;19932;-47
2023/09/25 09:18:46;;;;;;;;;;;28.60;43.50;;;21.56;45.20;96139.19;5024560;28;20440;-45
2023/09/25 09:21:27;;;;;;;;;;;28.80;43.30;;;21.72;45.76;96139.50;5028915;28;20355;-53
2023/09/25 09:23:56;;;;;;;;;;;29.00;43.10;;;21.76;45.30;96139.63;5014161;28;19916;-55
2023/09/25 09:26:23;;;;;;;;;;;29.10;42.80;;;21.91;44.42;96133.69;5016779;28;19912;-56
2023/09/25 09:28:53;;;;;;;;;;;29.20;42.50;;;22.17;43.79;96136.34;5018234;28;19916;-52
2023/09/25 09:31:19;;;;;;;;;;;29.30;42.30;;;22.24;44.58;96142.06;5025506;28;20264;-45
2023/09/25 09:33:46;;;;;;;;;;;29.50;42.20;;;22.54;43.60;96142.88;5030127;28;19919;-48
2023/09/25 09:36:14;;;;;;;;;;;29.70;42.10;;;22.71;43.82;96130.31;5024510;28;19909;-47
2023/09/25 09:38:42;;;;;;;;;;;30.00;42.00;;;22.86;43.32;96130.53;5023512;28;19913;-54
2023/09/25 09:41:08;;;;;;;;;;;30.20;41.70;;;22.87;42.04;96120.47;5024770;28;19915;-49
2023/09/25 09:43:35;;;;;;;;;;;30.40;41.40;;;23.05;42.40;96123.88;5033061;28;20286;-45
2023/09/25 09:46:02;;;;;;;;;;;30.70;41.20;;;22.97;42.33;96124.75;5017113;28;19915;-48
2023/09/25 09:48:32;;;;;;;;;;;30.70;40.80;;;23.14;42.41;96116.47;5027854;28;19958;-49
2023/09/25 09:51:03;;;;;;;;;;;30.90;40.50;;;23.32;42.20;96117.91;5017988;28;20332;-46
2023/09/25 09:53:34;;;;;;;;;;;31.00;40.10;;;23.46;41.32;96114.09;5022814;28;19909;-46
2023/09/25 09:56:01;;;;;;;;;;;31.10;39.90;;;23.45;40.50;96118.75;5022844;28;20043;-50
2023/09/25 09:58:28;;;;;;;;;;;31.20;39.60;;;23.61;40.90;96121.63;5011496;28;19920;-51
2023/09/25 10:00:57;;;;;;;;;;;31.30;40.20;;;23.51;40.55;96113.91;5024456;28;19916;-54
2023/09/25 10:03:25;;;;;;;;;;;31.40;39.40;;;23.77;41.34;96114.47;5030642;28;19909;-50
2023/09/25 10:05:53;;;;;;;;;;;31.60;39.10;;;23.90;40.78;96107.13;5023742;28;19971;-53
2023/09/25 10:08:18;;;;;;;;;;;31.70;39.00;;;23.86;40.33;96111.66;5004153;28;19909;-48
2023/09/25 10:10:50;;;;;;;;;;;31.90;38.60;;;23.88;39.38;96111.28;5027516;28;20306;-49
2023/09/25 10:13:28;;;;;;;;;;;31.90;38.20;;;24.07;40.93;96110.75;5032955;28;19913;-55
2023/09/25 10:16:00;;;;;;;;;;;32.00;38.00;;;24.42;39.95;96111.16;4999629;28;20333;-52
2023/09/25 10:18:27;;;;;;;;;;;32.20;38.10;;;24.41;39.27;96112.25;5025084;28;19917;-52
2023/09/25 10:21:11;;;;;;;;;;;32.40;37.80;;;24.61;40.38;96114.09;5024792;28;19939;-48
2023/09/25 10:23:48;;;;;;;;;;;32.50;37.50;;;24.92;39.67;96112.69;5031725;28;20291;-49
2023/09/25 10:26:25;;;;;;;;;;;32.80;37.50;;;25.26;38.18;96107.84;5025321;28;19912;-50
2023/09/25 10:29:13;;;;;;;;;;;33.00;37.40;;;25.21;38.37;96108.91;5017710;28;19924;-47
2023/09/25 10:31:48;;;;;;;;;;;33.30;37.20;;;25.00;39.23;96103.59;5013006;28;20354;-49
2023/09/25 10:34:14;;;;;;;;;;;33.40;36.80;;;24.97;38.60;96101.53;5011722;28;19928;-52
2023/09/25 10:36:43;;;;;;;;;;;33.50;36.60;;;25.02;38.66;96095.06;5011372;28;20607;-49
2023/09/25 10:39:14;;;;;;;;;;;33.60;36.30;;;25.48;38.39;96109.22;5016489;28;19995;-48
2023/09/25 10:41:47;;;;;;;;;;;33.70;36.20;;;25.24;37.96;96099.22;5011569;28;20061;-51
2023/09/25 10:44:15;;;;;;;;;;;33.70;35.90;;;25.01;38.16;96110.63;5015236;28;20333;-53
2023/09/25 10:46:41;;;;;;;;;;;33.60;35.60;;;24.85;39.52;96107.84;5012977;28;19917;-50
2023/09/25 10:49:11;;;;;;;;;;;33.70;35.70;;;25.10;39.30;96107.75;5011822;28;19916;-48
2023/09/25 10:51:37;;;;;;;;;;;33.70;35.70;;;25.32;38.46;96110.00;5020598;28;19909;-49
2023/09/25 10:54:03;;;;;;;;;;;33.80;35.70;;;25.44;39.19;96111.88;5011415;28;19909;-50
2023/09/25 10:56:30;;;;;;;;;;;33.90;35.60;;;25.52;37.62;96112.88;5010953;28;20398;-49
2023/09/25 10:58:56;;;;;;;;;;;34.10;35.50;;;25.74;38.43;96108.78;4994904;28;20377;-53
2023/09/25 11:01:31;;;;;;;;;;;34.20;35.40;;;25.43;38.56;96110.28;5014544;28;19909;-54
2023/09/25 11:03:59;;;;;;;;;;;34.30;34.80;;;25.34;38.95;96113.16;5015788;28;19916;-51
2023/09/25 11:06:26;;;;;;;;;;;34.30;34.70;;;24.86;37.96;96114.06;5011146;28;20011;-50
2023/09/25 11:09:11;;;;;;;;;;;34.40;34.70;;;25.10;38.35;96107.75;5000472;28;19909;-54
2023/09/25 11:11:40;;;;;;;;;;;34.30;34.40;;;25.23;38.03;96108.53;5011514;28;20007;-48
2023/09/25 11:14:06;;;;;;;;;;;34.30;34.20;;;25.19;37.49;96107.66;5013532;28;19966;-48
2023/09/25 11:16:34;;;;;;;;;;;34.30;34.20;;;25.04;38.30;96106.41;5022388;28;19982;-53
2023/09/25 11:19:11;;;;;;;;;;;34.30;34.20;;;24.97;39.50;96103.47;5030936;28;19956;-51
2023/09/25 11:21:39;;;;;;;;;;;34.40;34.10;;;25.37;37.96;96104.28;5019066;28;19962;-52